sensor_id;sensor_type;location;lat;lon;timestamp;pressure;altitude;pressure_sealevel;temperature;humidity
60832;BME280;46665;51.558;-0.448;2022-07-10T00:00:06;102459.56;;;17.53;72.41
60832;BME280;46665;51.558;-0.448;2022-07-10T00:02:32;102455.41;;;17.56;72.07
60832;BME280;46665;51.558;-0.448;2022-07-10T00:04:57;102462.03;;;17.55;72.37
60832;BME280;46665;51.558;-0.448;2022-07-10T00:07:23;102459.91;;;17.37;73.20
60832;BME280;46665;51.558;-0.448;2022-07-10T00:09:48;102464.09;;;17.29;73.67
60832;BME280;46665;51.558;-0.448;2022-07-10T00:12:14;102459.41;;;17.35;73.25
60832;BME280;46665;51.558;-0.448;2022-07-10T00:14:39;102458.03;;;17.32;73.83
60832;BME280;46665;51.558;-0.448;2022-07-10T00:17:05;102449.25;;;17.30;73.98
60832;BME280;46665;51.558;-0.448;2022-07-10T00:19:30;102455.91;;;17.14;75.06
60832;BME280;46665;51.558;-0.448;2022-07-10T00:21:55;102445.44;;;17.16;74.45
60832;BME280;46665;51.558;-0.448;2022-07-10T00:24:21;102438.84;;;17.11;74.80
60832;BME280;46665;51.558;-0.448;2022-07-10T00:26:46;102445.19;;;17.12;75.17
60832;BME280;46665;51.558;-0.448;2022-07-10T00:29:13;102439.41;;;17.08;75.27
60832;BME280;46665;51.558;-0.448;2022-07-10T00:31:39;102438.06;;;17.06;74.43
60832;BME280;46665;51.558;-0.448;2022-07-10T00:34:04;102440.28;;;16.99;74.80
60832;BME280;46665;51.558;-0.448;2022-07-10T00:36:30;102437.56;;;16.88;75.73
60832;BME280;46665;51.558;-0.448;2022-07-10T00:38:55;102447.47;;;16.95;75.53
60832;BME280;46665;51.558;-0.448;2022-07-10T00:41:20;102445.53;;;16.95;75.75
60832;BME280;46665;51.558;-0.448;2022-07-10T00:43:52;102437.84;;;16.92;75.99
60832;BME280;46665;51.558;-0.448;2022-07-10T00:46:19;102446.66;;;16.89;76.14
60832;BME280;46665;51.558;-0.448;2022-07-10T00:48:47;102445.31;;;16.81;76.15
60832;BME280;46665;51.558;-0.448;2022-07-10T00:51:14;102442.81;;;16.80;76.23
60832;BME280;46665;51.558;-0.448;2022-07-10T00:53:40;102440.63;;;16.77;76.12
60832;BME280;46665;51.558;-0.448;2022-07-10T00:56:06;102437.59;;;16.73;76.60
60832;BME280;46665;51.558;-0.448;2022-07-10T00:58:33;102448.06;;;16.71;76.48
60832;BME280;46665;51.558;-0.448;2022-07-10T01:01:01;102437.59;;;16.63;76.91
60832;BME280;46665;51.558;-0.448;2022-07-10T01:03:27;102447.53;;;16.54;77.00
60832;BME280;46665;51.558;-0.448;2022-07-10T01:05:52;102438.47;;;16.43;77.41
60832;BME280;46665;51.558;-0.448;2022-07-10T01:08:18;102431.91;;;16.39;78.04
60832;BME280;46665;51.558;-0.448;2022-07-10T01:10:45;102432.72;;;16.34;78.57
60832;BME280;46665;51.558;-0.448;2022-07-10T01:13:12;102441.22;;;16.33;78.79
60832;BME280;46665;51.558;-0.448;2022-07-10T01:15:38;102435.75;;;16.28;78.58
60832;BME280;46665;51.558;-0.448;2022-07-10T01:18:03;102437.97;;;16.25;79.05
60832;BME280;46665;51.558;-0.448;2022-07-10T01:20:32;102442.09;;;16.23;78.88
60832;BME280;46665;51.558;-0.448;2022-07-10T01:22:58;102424.22;;;16.15;79.22
60832;BME280;46665;51.558;-0.448;2022-07-10T01:25:24;102433.56;;;16.09;80.12
60832;BME280;46665;51.558;-0.448;2022-07-10T01:27:50;102440.97;;;16.03;80.21
60832;BME280;46665;51.558;-0.448;2022-07-10T01:30:16;102419.28;;;16.02;81.08
60832;BME280;46665;51.558;-0.448;2022-07-10T01:32:43;102424.50;;;15.93;80.61
60832;BME280;46665;51.558;-0.448;2022-07-10T01:35:09;102426.94;;;15.90;80.26
60832;BME280;46665;51.558;-0.448;2022-07-10T01:37:35;102429.16;;;15.82;80.91
60832;BME280;46665;51.558;-0.448;2022-07-10T01:40:00;102432.19;;;15.81;81.28
60832;BME280;46665;51.558;-0.448;2022-07-10T01:42:26;102431.91;;;15.82;81.10
60832;BME280;46665;51.558;-0.448;2022-07-10T01:44:51;102419.84;;;15.89;81.48
60832;BME280;46665;51.558;-0.448;2022-07-10T01:47:17;102414.34;;;15.89;81.69
60832;BME280;46665;51.558;-0.448;2022-07-10T01:49:42;102420.09;;;15.82;81.86
60832;BME280;46665;51.558;-0.448;2022-07-10T01:52:08;102425.31;;;15.78;82.68
60832;BME280;46665;51.558;-0.448;2022-07-10T01:54:35;102420.06;;;15.72;82.42
60832;BME280;46665;51.558;-0.448;2022-07-10T01:57:00;102415.97;;;15.74;82.57
60832;BME280;46665;51.558;-0.448;2022-07-10T01:59:26;102414.06;;;15.75;82.65
60832;BME280;46665;51.558;-0.448;2022-07-10T02:01:51;102414.59;;;15.72;82.88
60832;BME280;46665;51.558;-0.448;2022-07-10T02:04:17;102416.22;;;15.68;82.55
60832;BME280;46665;51.558;-0.448;2022-07-10T02:07:00;102403.88;;;15.65;82.90
60832;BME280;46665;51.558;-0.448;2022-07-10T02:09:26;102409.34;;;15.60;83.44
60832;BME280;46665;51.558;-0.448;2022-07-10T02:11:51;102410.72;;;15.63;83.59
60832;BME280;46665;51.558;-0.448;2022-07-10T02:14:17;102400.00;;;15.61;83.67
60832;BME280;46665;51.558;-0.448;2022-07-10T02:16:43;102401.13;;;15.60;83.62
60832;BME280;46665;51.558;-0.448;2022-07-10T02:19:10;102411.25;;;15.59;83.91
60832;BME280;46665;51.558;-0.448;2022-07-10T02:21:35;102404.66;;;15.50;83.81
60832;BME280;46665;51.558;-0.448;2022-07-10T02:24:00;102405.22;;;15.47;84.04
60832;BME280;46665;51.558;-0.448;2022-07-10T02:26:26;102400.25;;;15.49;84.20
60832;BME280;46665;51.558;-0.448;2022-07-10T02:28:51;102401.34;;;15.48;84.52
60832;BME280;46665;51.558;-0.448;2022-07-10T02:31:17;102411.50;;;15.43;84.34
60832;BME280;46665;51.558;-0.448;2022-07-10T02:33:42;102401.34;;;15.38;84.75
60832;BME280;46665;51.558;-0.448;2022-07-10T02:36:07;102410.13;;;15.35;85.09
60832;BME280;46665;51.558;-0.448;2022-07-10T02:38:33;102405.19;;;15.32;84.82
60832;BME280;46665;51.558;-0.448;2022-07-10T02:40:58;102403.81;;;15.29;84.76
60832;BME280;46665;51.558;-0.448;2022-07-10T02:43:24;102400.22;;;15.29;84.67
60832;BME280;46665;51.558;-0.448;2022-07-10T02:45:49;102401.31;;;15.28;84.85
60832;BME280;46665;51.558;-0.448;2022-07-10T02:48:15;102405.66;;;15.18;85.56
60832;BME280;46665;51.558;-0.448;2022-07-10T02:50:41;102397.41;;;15.13;85.38
60832;BME280;46665;51.558;-0.448;2022-07-10T02:53:06;102402.34;;;15.11;85.83
60832;BME280;46665;51.558;-0.448;2022-07-10T02:55:32;102404.28;;;15.11;86.08
60832;BME280;46665;51.558;-0.448;2022-07-10T02:57:58;102394.66;;;15.08;86.14
60832;BME280;46665;51.558;-0.448;2022-07-10T03:00:25;102393.84;;;15.08;86.13
60832;BME280;46665;51.558;-0.448;2022-07-10T03:02:51;102390.28;;;15.07;86.34
60832;BME280;46665;51.558;-0.448;2022-07-10T03:05:17;102385.06;;;15.06;85.97
60832;BME280;46665;51.558;-0.448;2022-07-10T03:07:43;102387.81;;;15.06;86.36
60832;BME280;46665;51.558;-0.448;2022-07-10T03:10:09;102386.97;;;15.05;85.80
60832;BME280;46665;51.558;-0.448;2022-07-10T03:12:35;102382.03;;;15.02;86.30
60832;BME280;46665;51.558;-0.448;2022-07-10T03:15:02;102377.94;;;15.00;86.43
60832;BME280;46665;51.558;-0.448;2022-07-10T03:17:28;102379.00;;;14.99;86.53
60832;BME280;46665;51.558;-0.448;2022-07-10T03:19:53;102382.28;;;14.95;87.09
60832;BME280;46665;51.558;-0.448;2022-07-10T03:22:19;102376.53;;;14.92;87.22
60832;BME280;46665;51.558;-0.448;2022-07-10T03:24:45;102378.16;;;14.93;87.00
60832;BME280;46665;51.558;-0.448;2022-07-10T03:27:12;102387.19;;;14.88;87.24
60832;BME280;46665;51.558;-0.448;2022-07-10T03:29:38;102373.47;;;14.83;87.31
60832;BME280;46665;51.558;-0.448;2022-07-10T03:32:04;102387.16;;;14.83;87.46
60832;BME280;46665;51.558;-0.448;2022-07-10T03:34:30;102383.31;;;14.79;87.51
60832;BME280;46665;51.558;-0.448;2022-07-10T03:36:55;102378.91;;;14.78;87.65
60832;BME280;46665;51.558;-0.448;2022-07-10T03:39:21;102375.63;;;14.76;88.20
60832;BME280;46665;51.558;-0.448;2022-07-10T03:41:47;102370.09;;;14.71;88.44
60832;BME280;46665;51.558;-0.448;2022-07-10T03:44:12;102373.69;;;14.71;88.19
60832;BME280;46665;51.558;-0.448;2022-07-10T03:46:38;102361.34;;;14.69;88.06
60832;BME280;46665;51.558;-0.448;2022-07-10T03:49:03;102364.34;;;14.67;88.44
60832;BME280;46665;51.558;-0.448;2022-07-10T03:51:29;102364.34;;;14.67;88.86
60832;BME280;46665;51.558;-0.448;2022-07-10T03:53:54;102359.97;;;14.66;89.07
60832;BME280;46665;51.558;-0.448;2022-07-10T03:56:19;102360.22;;;14.65;89.18
60832;BME280;46665;51.558;-0.448;2022-07-10T03:59:04;102360.47;;;14.63;89.53
60832;BME280;46665;51.558;-0.448;2022-07-10T04:01:29;102368.69;;;14.58;89.48
60832;BME280;46665;51.558;-0.448;2022-07-10T04:03:55;102366.75;;;14.54;89.78
60832;BME280;46665;51.558;-0.448;2022-07-10T04:06:21;102359.59;;;14.52;89.53
60832;BME280;46665;51.558;-0.448;2022-07-10T04:08:46;102364.78;;;14.49;90.10
60832;BME280;46665;51.558;-0.448;2022-07-10T04:11:11;102362.28;;;14.47;90.30
60832;BME280;46665;51.558;-0.448;2022-07-10T04:13:37;102357.34;;;14.44;90.55
60832;BME280;46665;51.558;-0.448;2022-07-10T04:16:03;102361.44;;;14.42;90.58
60832;BME280;46665;51.558;-0.448;2022-07-10T04:18:28;102354.34;;;14.41;90.74
60832;BME280;46665;51.558;-0.448;2022-07-10T04:20:54;102367.47;;;14.39;90.65
60832;BME280;46665;51.558;-0.448;2022-07-10T04:23:19;102356.50;;;14.39;91.04
60832;BME280;46665;51.558;-0.448;2022-07-10T04:25:44;102363.38;;;14.41;90.93
60832;BME280;46665;51.558;-0.448;2022-07-10T04:28:10;102357.59;;;14.38;90.88
60832;BME280;46665;51.558;-0.448;2022-07-10T04:30:36;102358.16;;;14.40;90.79
60832;BME280;46665;51.558;-0.448;2022-07-10T04:33:01;102366.69;;;14.43;90.65
60832;BME280;46665;51.558;-0.448;2022-07-10T04:35:27;102367.19;;;14.40;91.01
60832;BME280;46665;51.558;-0.448;2022-07-10T04:37:52;102363.66;;;14.45;90.92
60832;BME280;46665;51.558;-0.448;2022-07-10T04:40:17;102362.03;;;14.49;90.97
60832;BME280;46665;51.558;-0.448;2022-07-10T04:42:43;102364.03;;;14.54;90.89
60832;BME280;46665;51.558;-0.448;2022-07-10T04:45:09;102368.16;;;14.61;90.61
60832;BME280;46665;51.558;-0.448;2022-07-10T04:47:34;102369.56;;;14.64;90.50
60832;BME280;46665;51.558;-0.448;2022-07-10T04:49:59;102375.06;;;14.69;91.06
60832;BME280;46665;51.558;-0.448;2022-07-10T04:52:25;102371.78;;;14.72;91.47
60832;BME280;46665;51.558;-0.448;2022-07-10T04:54:50;102371.81;;;14.77;92.41
60832;BME280;46665;51.558;-0.448;2022-07-10T04:57:16;102376.50;;;14.87;91.64
60832;BME280;46665;51.558;-0.448;2022-07-10T04:59:41;102378.47;;;14.97;91.04
60832;BME280;46665;51.558;-0.448;2022-07-10T05:02:07;102376.28;;;15.04;91.02
60832;BME280;46665;51.558;-0.448;2022-07-10T05:04:33;102378.22;;;15.08;91.18
60832;BME280;46665;51.558;-0.448;2022-07-10T05:06:59;102372.75;;;15.13;90.69
60832;BME280;46665;51.558;-0.448;2022-07-10T05:09:24;102375.25;;;15.20;90.20
60832;BME280;46665;51.558;-0.448;2022-07-10T05:11:49;102382.09;;;15.23;90.04
60832;BME280;46665;51.558;-0.448;2022-07-10T05:14:15;102369.22;;;15.23;90.25
60832;BME280;46665;51.558;-0.448;2022-07-10T05:16:41;102362.63;;;15.24;90.23
60832;BME280;46665;51.558;-0.448;2022-07-10T05:19:07;102362.66;;;15.29;90.06
60832;BME280;46665;51.558;-0.448;2022-07-10T05:21:33;102369.81;;;15.41;89.51
60832;BME280;46665;51.558;-0.448;2022-07-10T05:23:58;102373.13;;;15.53;88.83
60832;BME280;46665;51.558;-0.448;2022-07-10T05:26:24;102368.19;;;15.65;88.81
60832;BME280;46665;51.558;-0.448;2022-07-10T05:28:49;102368.22;;;15.86;88.34
60832;BME280;46665;51.558;-0.448;2022-07-10T05:31:15;102364.09;;;16.09;88.43
60832;BME280;46665;51.558;-0.448;2022-07-10T05:33:40;102363.50;;;16.27;87.55
60832;BME280;46665;51.558;-0.448;2022-07-10T05:36:08;102367.59;;;16.45;85.34
60832;BME280;46665;51.558;-0.448;2022-07-10T05:38:34;102369.72;;;16.63;84.05
60832;BME280;46665;51.558;-0.448;2022-07-10T05:40:59;102372.97;;;16.81;84.38
60832;BME280;46665;51.558;-0.448;2022-07-10T05:43:24;102363.91;;;16.85;81.44
60832;BME280;46665;51.558;-0.448;2022-07-10T05:45:50;102353.97;;;16.95;80.85
60832;BME280;46665;51.558;-0.448;2022-07-10T05:48:16;102355.31;;;17.02;79.35
60832;BME280;46665;51.558;-0.448;2022-07-10T05:50:41;102363.16;;;17.24;79.71
60832;BME280;46665;51.558;-0.448;2022-07-10T05:53:06;102367.47;;;17.36;78.14
60832;BME280;46665;51.558;-0.448;2022-07-10T05:55:32;102366.56;;;17.50;78.08
60832;BME280;46665;51.558;-0.448;2022-07-10T05:57:57;102367.56;;;17.60;77.29
60832;BME280;46665;51.558;-0.448;2022-07-10T06:00:24;102367.94;;;17.87;78.19
60832;BME280;46665;51.558;-0.448;2022-07-10T06:02:50;102368.34;;;17.70;75.34
60832;BME280;46665;51.558;-0.448;2022-07-10T06:05:15;102370.50;;;17.73;76.17
60832;BME280;46665;51.558;-0.448;2022-07-10T06:07:41;102376.50;;;17.86;75.94
60832;BME280;46665;51.558;-0.448;2022-07-10T06:10:07;102375.59;;;17.95;75.31
60832;BME280;46665;51.558;-0.448;2022-07-10T06:12:32;102372.84;;;17.95;75.21
60832;BME280;46665;51.558;-0.448;2022-07-10T06:14:58;102373.53;;;17.72;75.61
60832;BME280;46665;51.558;-0.448;2022-07-10T06:17:24;102372.03;;;17.55;77.19
60832;BME280;46665;51.558;-0.448;2022-07-10T06:19:49;102373.38;;;17.58;77.43
60832;BME280;46665;51.558;-0.448;2022-07-10T06:22:15;102379.13;;;17.62;76.82
60832;BME280;46665;51.558;-0.448;2022-07-10T06:24:59;102374.19;;;17.59;76.77
60832;BME280;46665;51.558;-0.448;2022-07-10T06:27:25;102375.09;;;17.49;76.70
60832;BME280;46665;51.558;-0.448;2022-07-10T06:29:51;102376.25;;;17.43;77.54
60832;BME280;46665;51.558;-0.448;2022-07-10T06:32:16;102377.06;;;17.43;77.63
60832;BME280;46665;51.558;-0.448;2022-07-10T06:34:42;102368.59;;;17.35;78.04
60832;BME280;46665;51.558;-0.448;2022-07-10T06:37:07;102371.03;;;17.41;78.19
60832;BME280;46665;51.558;-0.448;2022-07-10T06:39:33;102369.00;;;17.52;77.78
60832;BME280;46665;51.558;-0.448;2022-07-10T06:42:06;102366.75;;;17.59;76.79
60832;BME280;46665;51.558;-0.448;2022-07-10T06:44:32;102362.09;;;17.54;76.42
60832;BME280;46665;51.558;-0.448;2022-07-10T06:46:59;102360.13;;;17.65;75.77
60832;BME280;46665;51.558;-0.448;2022-07-10T06:49:45;102355.47;;;17.61;76.27
60832;BME280;46665;51.558;-0.448;2022-07-10T06:52:11;102356.28;;;17.61;76.81
60832;BME280;46665;51.558;-0.448;2022-07-10T06:54:37;102352.91;;;17.69;76.29
60832;BME280;46665;51.558;-0.448;2022-07-10T06:57:03;102347.13;;;17.71;75.98
60832;BME280;46665;51.558;-0.448;2022-07-10T06:59:29;102349.06;;;17.70;75.96
60832;BME280;46665;51.558;-0.448;2022-07-10T07:01:54;102347.75;;;17.63;76.15
60832;BME280;46665;51.558;-0.448;2022-07-10T07:04:19;102349.38;;;17.64;75.89
60832;BME280;46665;51.558;-0.448;2022-07-10T07:06:45;102353.03;;;17.54;76.48
60832;BME280;46665;51.558;-0.448;2022-07-10T07:09:11;102345.88;;;17.58;76.76
60832;BME280;46665;51.558;-0.448;2022-07-10T07:11:36;102349.13;;;17.65;76.56
60832;BME280;46665;51.558;-0.448;2022-07-10T07:14:02;102349.59;;;17.72;75.84
60832;BME280;46665;51.558;-0.448;2022-07-10T07:16:27;102350.38;;;17.83;75.78
60832;BME280;46665;51.558;-0.448;2022-07-10T07:19:04;102349.56;;;17.83;75.10
60832;BME280;46665;51.558;-0.448;2022-07-10T07:21:33;102349.19;;;17.89;75.11
60832;BME280;46665;51.558;-0.448;2022-07-10T07:24:17;102349.69;;;17.96;75.10
60832;BME280;46665;51.558;-0.448;2022-07-10T07:26:47;102352.13;;;18.03;74.61
60832;BME280;46665;51.558;-0.448;2022-07-10T07:29:13;102346.84;;;18.07;74.21
60832;BME280;46665;51.558;-0.448;2022-07-10T07:31:39;102346.78;;;18.12;74.42
60832;BME280;46665;51.558;-0.448;2022-07-10T07:34:05;102343.44;;;18.15;73.58
60832;BME280;46665;51.558;-0.448;2022-07-10T07:36:30;102341.16;;;18.22;72.94
60832;BME280;46665;51.558;-0.448;2022-07-10T07:38:56;102338.31;;;18.32;72.56
60832;BME280;46665;51.558;-0.448;2022-07-10T07:41:21;102344.06;;;18.36;71.42
60832;BME280;46665;51.558;-0.448;2022-07-10T07:43:48;102342.66;;;18.38;71.32
60832;BME280;46665;51.558;-0.448;2022-07-10T07:46:14;102349.22;;;18.42;70.95
60832;BME280;46665;51.558;-0.448;2022-07-10T07:48:39;102340.59;;;18.49;71.23
60832;BME280;46665;51.558;-0.448;2022-07-10T07:51:05;102335.03;;;18.54;71.45
60832;BME280;46665;51.558;-0.448;2022-07-10T07:53:30;102339.34;;;18.60;71.28
60832;BME280;46665;51.558;-0.448;2022-07-10T07:55:56;102341.88;;;18.57;71.31
60832;BME280;46665;51.558;-0.448;2022-07-10T07:58:21;102347.34;;;18.62;71.00
60832;BME280;46665;51.558;-0.448;2022-07-10T08:00:47;102342.84;;;18.71;71.27
60832;BME280;46665;51.558;-0.448;2022-07-10T08:03:12;102341.97;;;18.71;70.27
60832;BME280;46665;51.558;-0.448;2022-07-10T08:05:37;102347.75;;;18.74;69.78
60832;BME280;46665;51.558;-0.448;2022-07-10T08:08:03;102338.31;;;18.80;70.12
60832;BME280;46665;51.558;-0.448;2022-07-10T08:10:34;102340.13;;;18.90;69.18
60832;BME280;46665;51.558;-0.448;2022-07-10T08:12:59;102335.59;;;18.99;68.94
60832;BME280;46665;51.558;-0.448;2022-07-10T08:15:26;102335.00;;;19.02;68.55
60832;BME280;46665;51.558;-0.448;2022-07-10T08:17:53;102331.63;;;19.05;68.60
60832;BME280;46665;51.558;-0.448;2022-07-10T08:20:19;102327.97;;;19.10;68.48
60832;BME280;46665;51.558;-0.448;2022-07-10T08:22:45;102328.34;;;19.22;68.42
60832;BME280;46665;51.558;-0.448;2022-07-10T08:25:12;102339.53;;;19.31;67.55
60832;BME280;46665;51.558;-0.448;2022-07-10T08:27:38;102326.63;;;19.26;67.43
60832;BME280;46665;51.558;-0.448;2022-07-10T08:30:05;102318.88;;;19.28;66.61
60832;BME280;46665;51.558;-0.448;2022-07-10T08:32:31;102327.06;;;19.34;67.49
60832;BME280;46665;51.558;-0.448;2022-07-10T08:34:56;102322.28;;;19.39;67.53
60832;BME280;46665;51.558;-0.448;2022-07-10T08:37:22;102322.34;;;19.53;66.98
60832;BME280;46665;51.558;-0.448;2022-07-10T08:39:47;102320.94;;;19.56;66.81
60832;BME280;46665;51.558;-0.448;2022-07-10T08:42:15;102317.47;;;19.64;66.31
60832;BME280;46665;51.558;-0.448;2022-07-10T08:44:41;102328.19;;;19.70;66.52
60832;BME280;46665;51.558;-0.448;2022-07-10T08:47:06;102323.47;;;19.71;66.31
60832;BME280;46665;51.558;-0.448;2022-07-10T08:49:32;102323.66;;;19.75;65.90
60832;BME280;46665;51.558;-0.448;2022-07-10T08:52:18;102331.06;;;19.79;66.38
60832;BME280;46665;51.558;-0.448;2022-07-10T08:54:48;102320.22;;;19.83;65.94
60832;BME280;46665;51.558;-0.448;2022-07-10T08:57:15;102321.47;;;19.90;65.54
60832;BME280;46665;51.558;-0.448;2022-07-10T08:59:40;102325.16;;;20.00;65.95
60832;BME280;46665;51.558;-0.448;2022-07-10T09:02:06;102322.31;;;20.05;65.27
60832;BME280;46665;51.558;-0.448;2022-07-10T09:04:31;102320.28;;;20.10;64.95
60832;BME280;46665;51.558;-0.448;2022-07-10T09:06:57;102321.91;;;20.11;63.74
60832;BME280;46665;51.558;-0.448;2022-07-10T09:09:22;102318.53;;;20.14;63.33
60832;BME280;46665;51.558;-0.448;2022-07-10T09:11:55;102319.56;;;20.19;64.20
60832;BME280;46665;51.558;-0.448;2022-07-10T09:14:20;102318.03;;;20.26;64.37
60832;BME280;46665;51.558;-0.448;2022-07-10T09:16:50;102320.47;;;20.28;63.23
60832;BME280;46665;51.558;-0.448;2022-07-10T09:19:25;102310.06;;;20.39;63.40
60832;BME280;46665;51.558;-0.448;2022-07-10T09:22:08;102314.63;;;20.43;62.55
60832;BME280;46665;51.558;-0.448;2022-07-10T09:24:46;102311.38;;;20.41;62.66
60832;BME280;46665;51.558;-0.448;2022-07-10T09:27:13;102305.75;;;20.60;62.57
60832;BME280;46665;51.558;-0.448;2022-07-10T09:29:51;102305.25;;;20.72;62.29
60832;BME280;46665;51.558;-0.448;2022-07-10T09:32:22;102301.34;;;20.73;62.14
60832;BME280;46665;51.558;-0.448;2022-07-10T09:34:49;102302.66;;;20.75;62.85
60832;BME280;46665;51.558;-0.448;2022-07-10T09:37:21;102301.03;;;20.74;61.81
60832;BME280;46665;51.558;-0.448;2022-07-10T09:40:06;102293.38;;;20.71;62.09
60832;BME280;46665;51.558;-0.448;2022-07-10T09:48:01;102282.25;;;20.85;61.64
60832;BME280;46665;51.558;-0.448;2022-07-10T09:50:34;102280.19;;;20.91;61.68
60832;BME280;46665;51.558;-0.448;2022-07-10T09:53:01;102285.00;;;20.99;61.46
60832;BME280;46665;51.558;-0.448;2022-07-10T09:55:32;102279.47;;;20.99;60.54
60832;BME280;46665;51.558;-0.448;2022-07-10T09:58:03;102273.47;;;21.06;60.23
60832;BME280;46665;51.558;-0.448;2022-07-10T10:00:29;102274.06;;;21.16;61.19
60832;BME280;46665;51.558;-0.448;2022-07-10T10:02:57;102262.03;;;21.21;60.38
60832;BME280;46665;51.558;-0.448;2022-07-10T10:05:32;102268.25;;;21.40;60.09
60832;BME280;46665;51.558;-0.448;2022-07-10T10:08:56;102275.78;;;21.49;59.72
60832;BME280;46665;51.558;-0.448;2022-07-10T10:10:51;102265.34;;;21.46;60.19
60832;BME280;46665;51.558;-0.448;2022-07-10T10:13:25;102261.13;;;21.48;59.57
60832;BME280;46665;51.558;-0.448;2022-07-10T10:15:56;102256.13;;;21.59;59.19
60832;BME280;46665;51.558;-0.448;2022-07-10T10:18:25;102259.72;;;21.59;59.06
60832;BME280;46665;51.558;-0.448;2022-07-10T10:20:55;102264.19;;;21.69;58.89
60832;BME280;46665;51.558;-0.448;2022-07-10T10:23:22;102255.56;;;21.71;58.54
60832;BME280;46665;51.558;-0.448;2022-07-10T10:25:55;102260.69;;;21.86;57.21
60832;BME280;46665;51.558;-0.448;2022-07-10T10:28:22;102263.00;;;21.93;56.80
60832;BME280;46665;51.558;-0.448;2022-07-10T10:30:50;102249.47;;;22.00;57.00
60832;BME280;46665;51.558;-0.448;2022-07-10T10:35:58;102251.19;;;22.18;56.41
60832;BME280;46665;51.558;-0.448;2022-07-10T10:38:24;102254.97;;;22.22;54.50
60832;BME280;46665;51.558;-0.448;2022-07-10T10:40:50;102243.09;;;22.31;54.03
60832;BME280;46665;51.558;-0.448;2022-07-10T10:43:24;102248.66;;;22.39;54.25
60832;BME280;46665;51.558;-0.448;2022-07-10T10:45:51;102249.03;;;22.46;52.10
60832;BME280;46665;51.558;-0.448;2022-07-10T10:48:18;102242.97;;;22.53;52.90
60832;BME280;46665;51.558;-0.448;2022-07-10T10:50:52;102238.09;;;22.67;54.25
60832;BME280;46665;51.558;-0.448;2022-07-10T10:53:23;102237.13;;;22.81;52.99
60832;BME280;46665;51.558;-0.448;2022-07-10T10:58:46;102226.53;;;22.74;50.55
60832;BME280;46665;51.558;-0.448;2022-07-10T11:06:52;102228.31;;;22.96;50.20
60832;BME280;46665;51.558;-0.448;2022-07-10T11:12:06;102221.66;;;23.14;49.18
60832;BME280;46665;51.558;-0.448;2022-07-10T11:14:40;102220.63;;;23.19;48.43
60832;BME280;46665;51.558;-0.448;2022-07-10T11:17:07;102220.00;;;23.22;47.24
60832;BME280;46665;51.558;-0.448;2022-07-10T11:19:35;102218.34;;;23.30;46.81
60832;BME280;46665;51.558;-0.448;2022-07-10T11:22:13;102218.50;;;23.42;47.07
60832;BME280;46665;51.558;-0.448;2022-07-10T11:25:17;102208.03;;;23.39;46.94
60832;BME280;46665;51.558;-0.448;2022-07-10T11:28:07;102205.22;;;23.48;46.26
60832;BME280;46665;51.558;-0.448;2022-07-10T11:30:54;102207.66;;;23.49;47.07
60832;BME280;46665;51.558;-0.448;2022-07-10T11:33:20;102200.09;;;23.67;46.68
60832;BME280;46665;51.558;-0.448;2022-07-10T11:35:48;102206.94;;;23.70;46.56
60832;BME280;46665;51.558;-0.448;2022-07-10T11:38:22;102195.69;;;23.66;46.35
60832;BME280;46665;51.558;-0.448;2022-07-10T11:40:48;102201.25;;;23.66;46.57
60832;BME280;46665;51.558;-0.448;2022-07-10T11:43:13;102199.72;;;23.86;47.25
60832;BME280;46665;51.558;-0.448;2022-07-10T11:45:43;102204.19;;;24.08;46.56
60832;BME280;46665;51.558;-0.448;2022-07-10T11:48:19;102196.75;;;24.21;46.17
60832;BME280;46665;51.558;-0.448;2022-07-10T11:50:45;102196.66;;;24.38;45.17
60832;BME280;46665;51.558;-0.448;2022-07-10T11:53:10;102190.31;;;24.29;45.16
60832;BME280;46665;51.558;-0.448;2022-07-10T11:55:37;102191.41;;;24.37;45.18
60832;BME280;46665;51.558;-0.448;2022-07-10T11:58:17;102179.59;;;24.40;44.33
60832;BME280;46665;51.558;-0.448;2022-07-10T12:00:44;102176.50;;;24.41;43.66
60832;BME280;46665;51.558;-0.448;2022-07-10T12:03:19;102184.94;;;24.54;44.14
60832;BME280;46665;51.558;-0.448;2022-07-10T12:05:46;102188.44;;;24.63;44.23
60832;BME280;46665;51.558;-0.448;2022-07-10T12:08:12;102184.13;;;24.74;43.60
60832;BME280;46665;51.558;-0.448;2022-07-10T12:10:41;102184.72;;;24.80;42.91
60832;BME280;46665;51.558;-0.448;2022-07-10T12:13:12;102177.22;;;24.93;41.96
60832;BME280;46665;51.558;-0.448;2022-07-10T12:15:39;102177.97;;;25.02;41.83
60832;BME280;46665;51.558;-0.448;2022-07-10T12:18:06;102176.47;;;25.04;42.42
60832;BME280;46665;51.558;-0.448;2022-07-10T12:20:32;102177.97;;;25.02;41.79
60832;BME280;46665;51.558;-0.448;2022-07-10T12:22:59;102183.22;;;25.16;41.89
60832;BME280;46665;51.558;-0.448;2022-07-10T12:25:25;102174.66;;;25.21;40.34
60832;BME280;46665;51.558;-0.448;2022-07-10T12:27:58;102166.38;;;25.12;40.26
60832;BME280;46665;51.558;-0.448;2022-07-10T12:30:44;102170.84;;;25.25;40.58
60832;BME280;46665;51.558;-0.448;2022-07-10T12:33:14;102165.97;;;25.22;40.40
60832;BME280;46665;51.558;-0.448;2022-07-10T12:35:50;102173.16;;;25.23;40.58
60832;BME280;46665;51.558;-0.448;2022-07-10T12:38:29;102166.72;;;25.44;39.90
60832;BME280;46665;51.558;-0.448;2022-07-10T12:41:08;102165.44;;;25.54;40.16
60832;BME280;46665;51.558;-0.448;2022-07-10T12:43:35;102159.75;;;25.62;39.38
60832;BME280;46665;51.558;-0.448;2022-07-10T12:46:16;102160.00;;;25.69;39.70
60832;BME280;46665;51.558;-0.448;2022-07-10T12:49:03;102156.06;;;25.70;38.88
60832;BME280;46665;51.558;-0.448;2022-07-10T12:51:31;102157.91;;;25.79;38.81
60832;BME280;46665;51.558;-0.448;2022-07-10T12:53:57;102155.13;;;25.79;38.82
60832;BME280;46665;51.558;-0.448;2022-07-10T12:56:36;102157.00;;;25.99;38.05
60832;BME280;46665;51.558;-0.448;2022-07-10T12:59:13;102153.03;;;26.12;39.11
60832;BME280;46665;51.558;-0.448;2022-07-10T13:01:43;102154.75;;;26.29;37.79